sensor_id;sensor_type;location;lat;lon;timestamp;P1;durP1;ratioP1;P2;durP2;ratioP2
842;SDS011;407;48.884;9.126;2022-11-14T00:02:02;19.07;;;9.73;;
842;SDS011;407;48.884;9.126;2022-11-14T00:04:28;20.33;;;10.05;;
842;SDS011;407;48.884;9.126;2022-11-14T00:06:53;22.67;;;10.10;;
842;SDS011;407;48.884;9.126;2022-11-14T00:09:19;19.90;;;10.23;;
842;SDS011;407;48.884;9.126;2022-11-14T00:11:48;17.60;;;8.75;;
842;SDS011;407;48.884;9.126;2022-11-14T00:14:14;19.05;;;9.27;;
842;SDS011;407;48.884;9.126;2022-11-14T00:16:39;17.63;;;9.23;;
842;SDS011;407;48.884;9.126;2022-11-14T00:19:05;21.77;;;9.45;;
842;SDS011;407;48.884;9.126;2022-11-14T00:21:30;22.73;;;9.90;;
842;SDS011;407;48.884;9.126;2022-11-14T00:23:56;21.17;;;9.90;;
842;SDS011;407;48.884;9.126;2022-11-14T00:26:21;17.67;;;8.50;;
842;SDS011;407;48.884;9.126;2022-11-14T00:28:47;19.55;;;9.75;;
842;SDS011;407;48.884;9.126;2022-11-14T00:31:12;19.37;;;9.70;;
842;SDS011;407;48.884;9.126;2022-11-14T00:33:38;20.10;;;9.45;;
842;SDS011;407;48.884;9.126;2022-11-14T00:36:04;19.70;;;9.00;;
842;SDS011;407;48.884;9.126;2022-11-14T00:38:29;19.58;;;9.02;;
842;SDS011;407;48.884;9.126;2022-11-14T00:40:55;20.00;;;9.13;;
842;SDS011;407;48.884;9.126;2022-11-14T00:43:20;20.73;;;8.83;;
842;SDS011;407;48.884;9.126;2022-11-14T00:45:46;19.17;;;8.88;;
842;SDS011;407;48.884;9.126;2022-11-14T00:48:12;17.20;;;8.32;;
842;SDS011;407;48.884;9.126;2022-11-14T00:50:39;17.70;;;8.68;;
842;SDS011;407;48.884;9.126;2022-11-14T00:53:05;20.17;;;9.32;;
842;SDS011;407;48.884;9.126;2022-11-14T00:55:31;17.75;;;9.15;;
842;SDS011;407;48.884;9.126;2022-11-14T00:57:56;16.58;;;8.20;;
842;SDS011;407;48.884;9.126;2022-11-14T01:00:22;17.47;;;8.93;;
842;SDS011;407;48.884;9.126;2022-11-14T01:02:48;22.65;;;9.68;;
842;SDS011;407;48.884;9.126;2022-11-14T01:05:13;20.35;;;9.82;;
842;SDS011;407;48.884;9.126;2022-11-14T01:07:39;20.30;;;9.07;;
842;SDS011;407;48.884;9.126;2022-11-14T01:10:05;16.52;;;8.20;;
842;SDS011;407;48.884;9.126;2022-11-14T01:12:32;19.02;;;9.02;;
842;SDS011;407;48.884;9.126;2022-11-14T01:14:58;17.75;;;8.75;;
842;SDS011;407;48.884;9.126;2022-11-14T01:17:24;19.80;;;8.95;;
842;SDS011;407;48.884;9.126;2022-11-14T01:19:52;17.50;;;8.32;;
842;SDS011;407;48.884;9.126;2022-11-14T01:22:18;18.13;;;8.50;;
842;SDS011;407;48.884;9.126;2022-11-14T01:24:44;21.50;;;9.18;;
842;SDS011;407;48.884;9.126;2022-11-14T01:27:10;19.33;;;9.17;;
842;SDS011;407;48.884;9.126;2022-11-14T01:29:35;22.03;;;10.07;;
842;SDS011;407;48.884;9.126;2022-11-14T01:32:01;17.00;;;8.33;;
842;SDS011;407;48.884;9.126;2022-11-14T01:34:26;18.30;;;8.23;;
842;SDS011;407;48.884;9.126;2022-11-14T01:36:53;16.65;;;7.25;;
842;SDS011;407;48.884;9.126;2022-11-14T01:39:19;18.87;;;8.60;;
842;SDS011;407;48.884;9.126;2022-11-14T01:41:45;16.27;;;7.87;;
842;SDS011;407;48.884;9.126;2022-11-14T01:44:11;18.38;;;9.30;;
842;SDS011;407;48.884;9.126;2022-11-14T01:46:42;19.70;;;9.57;;
842;SDS011;407;48.884;9.126;2022-11-14T01:49:24;18.55;;;8.52;;
842;SDS011;407;48.884;9.126;2022-11-14T01:54:27;19.48;;;9.25;;
842;SDS011;407;48.884;9.126;2022-11-14T01:56:57;22.70;;;10.20;;
842;SDS011;407;48.884;9.126;2022-11-14T01:59:26;18.63;;;9.00;;
842;SDS011;407;48.884;9.126;2022-11-14T02:01:56;21.83;;;9.43;;
842;SDS011;407;48.884;9.126;2022-11-14T02:04:27;18.27;;;9.20;;
842;SDS011;407;48.884;9.126;2022-11-14T02:07:00;18.98;;;9.07;;
842;SDS011;407;48.884;9.126;2022-11-14T02:09:28;18.67;;;9.63;;
842;SDS011;407;48.884;9.126;2022-11-14T02:11:56;19.38;;;9.32;;
842;SDS011;407;48.884;9.126;2022-11-14T02:14:25;19.03;;;9.70;;
842;SDS011;407;48.884;9.126;2022-11-14T02:16:52;19.58;;;9.82;;
842;SDS011;407;48.884;9.126;2022-11-14T02:19:18;19.58;;;9.15;;
842;SDS011;407;48.884;9.126;2022-11-14T02:21:44;20.17;;;9.00;;
842;SDS011;407;48.884;9.126;2022-11-14T02:24:10;22.77;;;8.80;;
842;SDS011;407;48.884;9.126;2022-11-14T02:26:37;20.02;;;9.85;;
842;SDS011;407;48.884;9.126;2022-11-14T02:29:03;20.45;;;9.57;;
842;SDS011;407;48.884;9.126;2022-11-14T02:31:29;19.05;;;9.30;;
842;SDS011;407;48.884;9.126;2022-11-14T02:33:55;22.50;;;10.95;;
842;SDS011;407;48.884;9.126;2022-11-14T02:36:21;18.70;;;10.00;;
842;SDS011;407;48.884;9.126;2022-11-14T02:38:46;17.85;;;9.10;;
842;SDS011;407;48.884;9.126;2022-11-14T02:41:12;22.90;;;11.35;;
842;SDS011;407;48.884;9.126;2022-11-14T02:43:38;20.33;;;10.77;;
842;SDS011;407;48.884;9.126;2022-11-14T02:46:03;17.48;;;10.02;;
842;SDS011;407;48.884;9.126;2022-11-14T02:48:29;21.03;;;10.40;;
842;SDS011;407;48.884;9.126;2022-11-14T02:50:55;21.30;;;10.40;;
842;SDS011;407;48.884;9.126;2022-11-14T02:53:20;19.67;;;10.60;;
842;SDS011;407;48.884;9.126;2022-11-14T02:55:46;21.70;;;10.73;;
842;SDS011;407;48.884;9.126;2022-11-14T02:58:11;20.55;;;10.77;;
842;SDS011;407;48.884;9.126;2022-11-14T03:00:37;18.97;;;10.00;;
842;SDS011;407;48.884;9.126;2022-11-14T03:03:02;18.40;;;9.88;;
842;SDS011;407;48.884;9.126;2022-11-14T03:05:28;21.13;;;9.10;;
842;SDS011;407;48.884;9.126;2022-11-14T03:07:54;20.58;;;9.95;;
842;SDS011;407;48.884;9.126;2022-11-14T03:10:20;24.48;;;10.32;;
842;SDS011;407;48.884;9.126;2022-11-14T03:12:46;21.63;;;9.80;;
842;SDS011;407;48.884;9.126;2022-11-14T03:15:12;17.58;;;8.32;;
842;SDS011;407;48.884;9.126;2022-11-14T03:17:38;19.05;;;9.20;;
842;SDS011;407;48.884;9.126;2022-11-14T03:20:04;20.70;;;9.10;;
842;SDS011;407;48.884;9.126;2022-11-14T03:22:30;19.48;;;9.93;;
842;SDS011;407;48.884;9.126;2022-11-14T03:24:55;18.20;;;9.57;;
842;SDS011;407;48.884;9.126;2022-11-14T03:27:21;19.77;;;9.25;;
842;SDS011;407;48.884;9.126;2022-11-14T03:29:47;19.90;;;9.07;;
842;SDS011;407;48.884;9.126;2022-11-14T03:32:13;22.08;;;9.98;;
842;SDS011;407;48.884;9.126;2022-11-14T03:34:39;20.10;;;9.73;;
842;SDS011;407;48.884;9.126;2022-11-14T03:37:04;19.70;;;9.10;;
842;SDS011;407;48.884;9.126;2022-11-14T03:39:30;21.77;;;9.95;;
842;SDS011;407;48.884;9.126;2022-11-14T03:41:56;18.53;;;8.60;;
842;SDS011;407;48.884;9.126;2022-11-14T03:44:21;19.52;;;9.00;;
842;SDS011;407;48.884;9.126;2022-11-14T03:46:47;16.40;;;8.67;;
842;SDS011;407;48.884;9.126;2022-11-14T03:49:12;20.05;;;8.90;;
842;SDS011;407;48.884;9.126;2022-11-14T03:51:38;20.00;;;8.93;;
842;SDS011;407;48.884;9.126;2022-11-14T03:54:03;20.17;;;9.30;;
842;SDS011;407;48.884;9.126;2022-11-14T03:56:29;20.92;;;9.38;;
842;SDS011;407;48.884;9.126;2022-11-14T03:58:55;18.13;;;8.57;;
842;SDS011;407;48.884;9.126;2022-11-14T04:01:20;23.00;;;9.13;;
842;SDS011;407;48.884;9.126;2022-11-14T04:03:46;19.10;;;8.63;;
842;SDS011;407;48.884;9.126;2022-11-14T04:06:11;14.68;;;7.57;;
842;SDS011;407;48.884;9.126;2022-11-14T04:08:38;18.77;;;8.50;;
842;SDS011;407;48.884;9.126;2022-11-14T04:11:05;19.10;;;8.80;;
842;SDS011;407;48.884;9.126;2022-11-14T04:13:31;18.10;;;8.07;;
842;SDS011;407;48.884;9.126;2022-11-14T04:15:56;18.20;;;7.80;;
842;SDS011;407;48.884;9.126;2022-11-14T04:18:23;19.50;;;8.90;;
842;SDS011;407;48.884;9.126;2022-11-14T04:20:49;20.43;;;9.30;;
842;SDS011;407;48.884;9.126;2022-11-14T04:23:16;17.92;;;8.10;;
842;SDS011;407;48.884;9.126;2022-11-14T04:25:42;19.95;;;9.25;;
842;SDS011;407;48.884;9.126;2022-11-14T04:28:09;21.48;;;9.07;;
842;SDS011;407;48.884;9.126;2022-11-14T04:30:34;18.20;;;8.43;;
842;SDS011;407;48.884;9.126;2022-11-14T04:33:00;17.40;;;8.63;;
842;SDS011;407;48.884;9.126;2022-11-14T04:35:26;19.23;;;8.63;;
842;SDS011;407;48.884;9.126;2022-11-14T04:37:51;17.27;;;8.20;;
842;SDS011;407;48.884;9.126;2022-11-14T04:40:17;18.42;;;8.23;;
842;SDS011;407;48.884;9.126;2022-11-14T04:42:42;17.70;;;9.23;;
842;SDS011;407;48.884;9.126;2022-11-14T04:45:08;46.35;;;17.88;;
842;SDS011;407;48.884;9.126;2022-11-14T04:47:34;38.45;;;15.35;;
842;SDS011;407;48.884;9.126;2022-11-14T04:50:00;24.77;;;11.97;;
842;SDS011;407;48.884;9.126;2022-11-14T04:52:25;24.77;;;12.60;;
842;SDS011;407;48.884;9.126;2022-11-14T04:54:51;22.58;;;11.65;;
842;SDS011;407;48.884;9.126;2022-11-14T04:57:16;23.00;;;9.77;;
842;SDS011;407;48.884;9.126;2022-11-14T04:59:42;20.67;;;10.63;;
842;SDS011;407;48.884;9.126;2022-11-14T05:02:08;24.40;;;11.23;;
842;SDS011;407;48.884;9.126;2022-11-14T05:04:34;21.73;;;10.57;;
842;SDS011;407;48.884;9.126;2022-11-14T05:06:59;21.90;;;11.60;;
842;SDS011;407;48.884;9.126;2022-11-14T05:09:25;20.38;;;10.20;;
842;SDS011;407;48.884;9.126;2022-11-14T05:11:50;22.40;;;10.90;;
842;SDS011;407;48.884;9.126;2022-11-14T05:14:16;28.05;;;11.95;;
842;SDS011;407;48.884;9.126;2022-11-14T05:16:42;28.38;;;12.43;;
842;SDS011;407;48.884;9.126;2022-11-14T05:19:08;28.80;;;13.80;;
842;SDS011;407;48.884;9.126;2022-11-14T05:21:33;24.88;;;12.00;;
842;SDS011;407;48.884;9.126;2022-11-14T05:23:59;35.37;;;17.10;;
842;SDS011;407;48.884;9.126;2022-11-14T05:26:24;31.23;;;15.47;;
842;SDS011;407;48.884;9.126;2022-11-14T05:28:50;30.52;;;15.80;;
842;SDS011;407;48.884;9.126;2022-11-14T05:31:15;24.70;;;12.97;;
842;SDS011;407;48.884;9.126;2022-11-14T05:33:44;25.25;;;11.43;;
842;SDS011;407;48.884;9.126;2022-11-14T05:36:11;26.13;;;12.73;;
842;SDS011;407;48.884;9.126;2022-11-14T05:38:39;25.58;;;10.85;;
842;SDS011;407;48.884;9.126;2022-11-14T05:41:05;24.30;;;12.00;;
842;SDS011;407;48.884;9.126;2022-11-14T05:43:32;25.13;;;10.90;;
842;SDS011;407;48.884;9.126;2022-11-14T05:46:01;20.53;;;10.37;;
842;SDS011;407;48.884;9.126;2022-11-14T05:48:29;24.33;;;10.73;;
842;SDS011;407;48.884;9.126;2022-11-14T05:50:59;23.15;;;11.43;;
842;SDS011;407;48.884;9.126;2022-11-14T05:53:27;22.77;;;10.50;;
842;SDS011;407;48.884;9.126;2022-11-14T05:55:53;20.77;;;10.13;;
842;SDS011;407;48.884;9.126;2022-11-14T05:58:19;24.57;;;11.80;;
842;SDS011;407;48.884;9.126;2022-11-14T06:00:46;19.70;;;10.65;;
842;SDS011;407;48.884;9.126;2022-11-14T06:03:12;19.15;;;10.00;;
842;SDS011;407;48.884;9.126;2022-11-14T06:05:39;20.98;;;10.73;;
842;SDS011;407;48.884;9.126;2022-11-14T06:08:05;20.70;;;9.77;;
842;SDS011;407;48.884;9.126;2022-11-14T06:10:30;22.33;;;9.52;;
842;SDS011;407;48.884;9.126;2022-11-14T06:12:58;21.27;;;9.85;;
842;SDS011;407;48.884;9.126;2022-11-14T06:15:23;19.60;;;9.63;;
842;SDS011;407;48.884;9.126;2022-11-14T06:17:50;21.40;;;10.70;;
842;SDS011;407;48.884;9.126;2022-11-14T06:20:17;20.73;;;9.38;;
842;SDS011;407;48.884;9.126;2022-11-14T06:22:43;19.80;;;9.27;;
842;SDS011;407;48.884;9.126;2022-11-14T06:25:08;19.90;;;9.90;;
842;SDS011;407;48.884;9.126;2022-11-14T06:27:34;21.25;;;10.50;;
842;SDS011;407;48.884;9.126;2022-11-14T06:29:59;19.05;;;10.05;;
842;SDS011;407;48.884;9.126;2022-11-14T06:32:25;21.17;;;10.30;;
842;SDS011;407;48.884;9.126;2022-11-14T06:34:51;19.45;;;9.18;;
842;SDS011;407;48.884;9.126;2022-11-14T06:37:16;23.00;;;10.33;;
842;SDS011;407;48.884;9.126;2022-11-14T06:39:42;18.90;;;9.65;;
842;SDS011;407;48.884;9.126;2022-11-14T06:42:07;17.77;;;8.97;;
842;SDS011;407;48.884;9.126;2022-11-14T06:44:33;19.10;;;9.70;;
842;SDS011;407;48.884;9.126;2022-11-14T06:46:59;21.90;;;10.13;;
842;SDS011;407;48.884;9.126;2022-11-14T06:49:24;19.47;;;8.83;;
842;SDS011;407;48.884;9.126;2022-11-14T06:51:51;17.05;;;8.80;;
842;SDS011;407;48.884;9.126;2022-11-14T06:54:17;21.58;;;9.50;;
842;SDS011;407;48.884;9.126;2022-11-14T06:56:43;20.38;;;9.80;;
842;SDS011;407;48.884;9.126;2022-11-14T06:59:09;21.37;;;10.33;;
842;SDS011;407;48.884;9.126;2022-11-14T07:01:34;18.07;;;9.47;;
842;SDS011;407;48.884;9.126;2022-11-14T07:04:00;20.15;;;9.88;;
842;SDS011;407;48.884;9.126;2022-11-14T07:06:26;18.50;;;8.97;;
842;SDS011;407;48.884;9.126;2022-11-14T07:08:54;20.80;;;9.80;;
842;SDS011;407;48.884;9.126;2022-11-14T07:11:22;22.17;;;11.60;;
842;SDS011;407;48.884;9.126;2022-11-14T07:13:52;19.23;;;9.60;;
842;SDS011;407;48.884;9.126;2022-11-14T07:16:19;19.08;;;9.18;;
842;SDS011;407;48.884;9.126;2022-11-14T07:18:47;18.60;;;9.27;;
842;SDS011;407;48.884;9.126;2022-11-14T07:21:13;19.33;;;9.40;;
842;SDS011;407;48.884;9.126;2022-11-14T07:23:38;21.57;;;9.30;;
842;SDS011;407;48.884;9.126;2022-11-14T07:26:06;19.25;;;9.57;;
842;SDS011;407;48.884;9.126;2022-11-14T07:28:33;16.92;;;8.38;;
842;SDS011;407;48.884;9.126;2022-11-14T07:31:04;22.92;;;8.95;;
842;SDS011;407;48.884;9.126;2022-11-14T07:33:31;17.55;;;8.85;;
842;SDS011;407;48.884;9.126;2022-11-14T07:35:57;19.65;;;8.95;;
842;SDS011;407;48.884;9.126;2022-11-14T07:38:23;17.00;;;8.60;;
842;SDS011;407;48.884;9.126;2022-11-14T07:40:53;15.65;;;8.40;;
842;SDS011;407;48.884;9.126;2022-11-14T07:43:19;18.00;;;8.60;;
842;SDS011;407;48.884;9.126;2022-11-14T07:45:45;18.37;;;8.67;;
842;SDS011;407;48.884;9.126;2022-11-14T07:48:10;17.58;;;8.30;;
842;SDS011;407;48.884;9.126;2022-11-14T07:50:36;16.90;;;7.97;;
842;SDS011;407;48.884;9.126;2022-11-14T07:53:02;15.93;;;8.30;;
842;SDS011;407;48.884;9.126;2022-11-14T07:55:28;19.60;;;8.05;;
842;SDS011;407;48.884;9.126;2022-11-14T07:57:53;18.93;;;7.90;;
842;SDS011;407;48.884;9.126;2022-11-14T08:00:22;16.83;;;8.20;;
842;SDS011;407;48.884;9.126;2022-11-14T08:02:48;16.83;;;7.88;;
842;SDS011;407;48.884;9.126;2022-11-14T08:05:14;17.00;;;8.00;;
842;SDS011;407;48.884;9.126;2022-11-14T08:07:40;16.15;;;8.63;;
842;SDS011;407;48.884;9.126;2022-11-14T08:10:05;18.50;;;8.80;;
842;SDS011;407;48.884;9.126;2022-11-14T08:12:32;16.85;;;8.77;;
842;SDS011;407;48.884;9.126;2022-11-14T08:14:57;19.63;;;10.27;;
842;SDS011;407;48.884;9.126;2022-11-14T08:17:23;19.10;;;9.50;;
842;SDS011;407;48.884;9.126;2022-11-14T08:19:48;19.67;;;9.07;;
842;SDS011;407;48.884;9.126;2022-11-14T08:22:14;19.90;;;9.90;;
842;SDS011;407;48.884;9.126;2022-11-14T08:24:40;18.15;;;9.23;;
842;SDS011;407;48.884;9.126;2022-11-14T08:27:05;22.13;;;10.23;;
842;SDS011;407;48.884;9.126;2022-11-14T08:29:31;16.65;;;9.10;;
842;SDS011;407;48.884;9.126;2022-11-14T08:31:56;19.90;;;9.60;;
842;SDS011;407;48.884;9.126;2022-11-14T08:34:22;19.83;;;9.45;;
842;SDS011;407;48.884;9.126;2022-11-14T08:36:49;17.08;;;8.80;;
842;SDS011;407;48.884;9.126;2022-11-14T08:39:15;21.60;;;9.90;;
842;SDS011;407;48.884;9.126;2022-11-14T08:41:40;17.67;;;8.77;;
842;SDS011;407;48.884;9.126;2022-11-14T08:44:06;18.07;;;9.30;;
842;SDS011;407;48.884;9.126;2022-11-14T08:46:31;19.98;;;9.05;;
842;SDS011;407;48.884;9.126;2022-11-14T08:48:57;18.10;;;8.93;;
842;SDS011;407;48.884;9.126;2022-11-14T08:51:23;14.90;;;8.18;;
842;SDS011;407;48.884;9.126;2022-11-14T08:53:48;19.07;;;8.50;;
842;SDS011;407;48.884;9.126;2022-11-14T08:56:16;18.60;;;7.90;;
842;SDS011;407;48.884;9.126;2022-11-14T08:58:42;13.60;;;6.50;;
842;SDS011;407;48.884;9.126;2022-11-14T09:01:08;10.33;;;4.67;;
842;SDS011;407;48.884;9.126;2022-11-14T09:03:34;8.85;;;3.17;;
842;SDS011;407;48.884;9.126;2022-11-14T09:06:00;8.15;;;2.15;;
842;SDS011;407;48.884;9.126;2022-11-14T09:08:26;5.32;;;1.50;;
842;SDS011;407;48.884;9.126;2022-11-14T09:10:52;5.90;;;2.28;;
842;SDS011;407;48.884;9.126;2022-11-14T09:13:18;5.10;;;1.37;;
842;SDS011;407;48.884;9.126;2022-11-14T09:15:44;5.47;;;1.35;;
842;SDS011;407;48.884;9.126;2022-11-14T09:18:10;5.13;;;1.30;;
842;SDS011;407;48.884;9.126;2022-11-14T09:20:36;5.30;;;1.70;;
842;SDS011;407;48.884;9.126;2022-11-14T09:23:02;6.88;;;1.50;;
842;SDS011;407;48.884;9.126;2022-11-14T09:25:28;6.22;;;1.65;;
842;SDS011;407;48.884;9.126;2022-11-14T09:27:54;5.93;;;1.63;;
842;SDS011;407;48.884;9.126;2022-11-14T09:30:20;5.97;;;1.80;;
842;SDS011;407;48.884;9.126;2022-11-14T09:32:49;7.10;;;1.60;;
842;SDS011;407;48.884;9.126;2022-11-14T09:35:15;6.45;;;1.77;;
842;SDS011;407;48.884;9.126;2022-11-14T09:37:41;6.05;;;2.05;;
842;SDS011;407;48.884;9.126;2022-11-14T09:40:06;6.35;;;2.17;;
842;SDS011;407;48.884;9.126;2022-11-14T09:45:20;6.25;;;1.90;;
842;SDS011;407;48.884;9.126;2022-11-14T09:47:53;7.57;;;2.25;;
842;SDS011;407;48.884;9.126;2022-11-14T09:50:32;6.83;;;2.23;;
842;SDS011;407;48.884;9.126;2022-11-14T09:53:05;9.73;;;2.50;;
842;SDS011;407;48.884;9.126;2022-11-14T09:55:51;6.00;;;2.10;;
842;SDS011;407;48.884;9.126;2022-11-14T09:58:18;6.20;;;2.00;;
842;SDS011;407;48.884;9.126;2022-11-14T10:01:00;7.13;;;2.58;;
842;SDS011;407;48.884;9.126;2022-11-14T10:06:45;9.85;;;3.00;;
842;SDS011;407;48.884;9.126;2022-11-14T10:12:29;9.25;;;4.45;;
842;SDS011;407;48.884;9.126;2022-11-14T10:23:35;8.77;;;3.88;;
842;SDS011;407;48.884;9.126;2022-11-14T10:26:27;8.85;;;4.00;;
842;SDS011;407;48.884;9.126;2022-11-14T10:28:58;11.30;;;4.00;;
842;SDS011;407;48.884;9.126;2022-11-14T10:34:26;9.50;;;3.63;;
842;SDS011;407;48.884;9.126;2022-11-14T10:37:26;7.47;;;3.30;;
842;SDS011;407;48.884;9.126;2022-11-14T10:40:17;8.95;;;4.20;;
842;SDS011;407;48.884;9.126;2022-11-14T10:42:54;12.10;;;3.60;;
842;SDS011;407;48.884;9.126;2022-11-14T10:45:25;8.40;;;3.50;;
842;SDS011;407;48.884;9.126;2022-11-14T10:47:56;13.40;;;3.30;;
842;SDS011;407;48.884;9.126;2022-11-14T10:53:09;8.95;;;3.50;;
842;SDS011;407;48.884;9.126;2022-11-14T10:55:44;7.55;;;2.75;;
842;SDS011;407;48.884;9.126;2022-11-14T10:58:13;8.55;;;2.63;;
842;SDS011;407;48.884;9.126;2022-11-14T11:00:39;5.97;;;2.00;;
842;SDS011;407;48.884;9.126;2022-11-14T11:03:05;5.50;;;1.67;;
842;SDS011;407;48.884;9.126;2022-11-14T11:05:31;5.75;;;1.85;;
842;SDS011;407;48.884;9.126;2022-11-14T11:08:24;5.50;;;1.80;;
842;SDS011;407;48.884;9.126;2022-11-14T11:11:12;6.57;;;2.05;;
842;SDS011;407;48.884;9.126;2022-11-14T11:13:54;7.37;;;2.20;;
842;SDS011;407;48.884;9.126;2022-11-14T11:16:23;7.57;;;2.40;;
842;SDS011;407;48.884;9.126;2022-11-14T11:18:51;6.50;;;2.00;;
842;SDS011;407;48.884;9.126;2022-11-14T11:21:18;5.20;;;1.50;;
842;SDS011;407;48.884;9.126;2022-11-14T11:23:52;5.32;;;1.58;;
842;SDS011;407;48.884;9.126;2022-11-14T11:26:23;5.38;;;1.50;;
842;SDS011;407;48.884;9.126;2022-11-14T11:29:00;5.00;;;1.10;;
842;SDS011;407;48.884;9.126;2022-11-14T11:31:26;5.00;;;1.40;;
842;SDS011;407;48.884;9.126;2022-11-14T11:33:51;7.60;;;1.50;;
842;SDS011;407;48.884;9.126;2022-11-14T11:36:18;5.10;;;1.30;;
842;SDS011;407;48.884;9.126;2022-11-14T11:38:47;5.10;;;1.40;;
842;SDS011;407;48.884;9.126;2022-11-14T11:41:22;4.90;;;1.10;;
842;SDS011;407;48.884;9.126;2022-11-14T11:43:57;7.20;;;1.40;;
842;SDS011;407;48.884;9.126;2022-11-14T11:48:56;5.03;;;1.10;;
842;SDS011;407;48.884;9.126;2022-11-14T11:51:44;4.70;;;1.17;;
842;SDS011;407;48.884;9.126;2022-11-14T11:54:24;5.50;;;1.40;;
842;SDS011;407;48.884;9.126;2022-11-14T11:56:55;5.55;;;1.50;;
842;SDS011;407;48.884;9.126;2022-11-14T11:59:27;4.87;;;1.20;;
842;SDS011;407;48.884;9.126;2022-11-14T12:04:43;4.13;;;0.77;;
842;SDS011;407;48.884;9.126;2022-11-14T12:07:13;4.67;;;1.10;;
842;SDS011;407;48.884;9.126;2022-11-14T12:09:44;4.60;;;1.20;;
842;SDS011;407;48.884;9.126;2022-11-14T12:12:12;4.53;;;0.80;;
842;SDS011;407;48.884;9.126;2022-11-14T12:14:47;4.40;;;0.90;;
842;SDS011;407;48.884;9.126;2022-11-14T12:28:20;5.05;;;1.27;;
842;SDS011;407;48.884;9.126;2022-11-14T12:31:00;6.10;;;1.27;;
842;SDS011;407;48.884;9.126;2022-11-14T12:33:31;6.22;;;1.80;;
842;SDS011;407;48.884;9.126;2022-11-14T12:36:00;5.20;;;1.20;;
842;SDS011;407;48.884;9.126;2022-11-14T12:38:31;5.20;;;1.50;;
842;SDS011;407;48.884;9.126;2022-11-14T12:41:04;4.40;;;1.00;;
842;SDS011;407;48.884;9.126;2022-11-14T12:46:02;5.67;;;1.40;;
842;SDS011;407;48.884;9.126;2022-11-14T12:48:33;6.28;;;1.55;;
842;SDS011;407;48.884;9.126;2022-11-14T12:51:03;4.93;;;1.10;;
842;SDS011;407;48.884;9.126;2022-11-14T12:53:52;5.22;;;1.10;;
842;SDS011;407;48.884;9.126;2022-11-14T13:07:18;5.40;;;1.20;;
842;SDS011;407;48.884;9.126;2022-11-14T13:16:02;5.70;;;1.40;;
842;SDS011;407;48.884;9.126;2022-11-14T13:18:49;6.40;;;1.20;;
842;SDS011;407;48.884;9.126;2022-11-14T13:21:34;8.07;;;1.70;;
842;SDS011;407;48.884;9.126;2022-11-14T13:24:15;6.25;;;1.95;;
842;SDS011;407;48.884;9.126;2022-11-14T13:26:46;5.57;;;1.17;;
842;SDS011;407;48.884;9.126;2022-11-14T13:32:06;6.40;;;1.50;;
842;SDS011;407;48.884;9.126;2022-11-14T13:34:50;6.43;;;1.88;;
842;SDS011;407;48.884;9.126;2022-11-14T13:49:40;5.20;;;1.40;;
842;SDS011;407;48.884;9.126;2022-11-14T13:52:18;5.85;;;1.70;;
842;SDS011;407;48.884;9.126;2022-11-14T13:54:52;5.80;;;1.43;;
842;SDS011;407;48.884;9.126;2022-11-14T13:57:22;8.20;;;1.50;;
842;SDS011;407;48.884;9.126;2022-11-14T14:00:13;5.95;;;1.80;;
842;SDS011;407;48.884;9.126;2022-11-14T14:02:47;5.50;;;1.60;;
842;SDS011;407;48.884;9.126;2022-11-14T14:11:23;7.10;;;1.80;;
842;SDS011;407;48.884;9.126;2022-11-14T14:19:07;7.78;;;1.67;;
842;SDS011;407;48.884;9.126;2022-11-14T14:33:13;6.05;;;1.90;;
842;SDS011;407;48.884;9.126;2022-11-14T14:35:47;6.10;;;2.00;;
842;SDS011;407;48.884;9.126;2022-11-14T14:38:25;6.40;;;2.00;;
842;SDS011;407;48.884;9.126;2022-11-14T14:40:54;8.20;;;2.30;;
842;SDS011;407;48.884;9.126;2022-11-14T14:43:22;6.20;;;1.80;;
842;SDS011;407;48.884;9.126;2022-11-14T14:45:58;6.35;;;1.90;;
842;SDS011;407;48.884;9.126;2022-11-14T14:48:32;5.97;;;1.80;;
842;SDS011;407;48.884;9.126;2022-11-14T14:51:02;6.03;;;1.85;;
842;SDS011;407;48.884;9.126;2022-11-14T14:53:32;6.03;;;1.80;;
842;SDS011;407;48.884;9.126;2022-11-14T14:56:00;7.00;;;2.13;;
842;SDS011;407;48.884;9.126;2022-11-14T14:58:28;6.28;;;1.95;;
842;SDS011;407;48.884;9.126;2022-11-14T15:01:00;6.80;;;2.00;;
842;SDS011;407;48.884;9.126;2022-11-14T15:03:41;6.00;;;2.00;;
842;SDS011;407;48.884;9.126;2022-11-14T15:06:28;6.90;;;2.20;;
842;SDS011;407;48.884;9.126;2022-11-14T15:11:42;6.75;;;2.25;;
842;SDS011;407;48.884;9.126;2022-11-14T15:14:14;6.97;;;2.30;;
842;SDS011;407;48.884;9.126;2022-11-14T15:16:42;8.30;;;2.00;;
842;SDS011;407;48.884;9.126;2022-11-14T15:19:11;6.20;;;1.80;;
842;SDS011;407;48.884;9.126;2022-11-14T15:21:39;6.10;;;1.90;;
842;SDS011;407;48.884;9.126;2022-11-14T15:24:17;6.88;;;2.08;;
842;SDS011;407;48.884;9.126;2022-11-14T15:26:47;7.68;;;2.08;;
842;SDS011;407;48.884;9.126;2022-11-14T15:29:15;7.45;;;2.05;;
842;SDS011;407;48.884;9.126;2022-11-14T15:31:44;5.95;;;2.15;;
842;SDS011;407;48.884;9.126;2022-11-14T15:34:22;7.45;;;2.00;;
842;SDS011;407;48.884;9.126;2022-11-14T15:39:41;6.13;;;1.90;;
842;SDS011;407;48.884;9.126;2022-11-14T15:42:26;6.53;;;2.13;;
842;SDS011;407;48.884;9.126;2022-11-14T15:44:55;6.10;;;1.90;;
842;SDS011;407;48.884;9.126;2022-11-14T15:50:02;6.70;;;2.00;;
842;SDS011;407;48.884;9.126;2022-11-14T15:55:00;6.30;;;2.10;;
842;SDS011;407;48.884;9.126;2022-11-14T15:57:27;7.18;;;2.17;;
842;SDS011;407;48.884;9.126;2022-11-14T15:59:56;6.43;;;1.90;;
842;SDS011;407;48.884;9.126;2022-11-14T16:02:23;8.48;;;2.22;;
842;SDS011;407;48.884;9.126;2022-11-14T16:04:52;6.05;;;2.20;;
842;SDS011;407;48.884;9.126;2022-11-14T16:07:19;9.50;;;2.20;;
842;SDS011;407;48.884;9.126;2022-11-14T16:09:45;7.30;;;2.20;;
842;SDS011;407;48.884;9.126;2022-11-14T16:12:11;6.82;;;2.33;;
842;SDS011;407;48.884;9.126;2022-11-14T16:14:37;6.32;;;2.17;;
842;SDS011;407;48.884;9.126;2022-11-14T16:17:03;6.70;;;2.45;;
842;SDS011;407;48.884;9.126;2022-11-14T16:19:29;6.90;;;2.25;;
842;SDS011;407;48.884;9.126;2022-11-14T16:21:56;6.95;;;2.25;;
842;SDS011;407;48.884;9.126;2022-11-14T16:24:26;7.25;;;2.50;;
842;SDS011;407;48.884;9.126;2022-11-14T16:26:52;9.10;;;2.65;;
842;SDS011;407;48.884;9.126;2022-11-14T16:29:18;6.80;;;2.90;;
842;SDS011;407;48.884;9.126;2022-11-14T16:31:43;7.75;;;2.30;;
842;SDS011;407;48.884;9.126;2022-11-14T16:34:13;7.57;;;2.27;;
842;SDS011;407;48.884;9.126;2022-11-14T16:36:42;7.57;;;2.40;;
842;SDS011;407;48.884;9.126;2022-11-14T16:39:10;7.18;;;2.45;;
842;SDS011;407;48.884;9.126;2022-11-14T16:41:37;8.17;;;2.90;;
842;SDS011;407;48.884;9.126;2022-11-14T16:44:03;10.90;;;2.50;;
842;SDS011;407;48.884;9.126;2022-11-14T16:46:29;7.05;;;2.40;;
842;SDS011;407;48.884;9.126;2022-11-14T16:48:55;6.67;;;2.60;;
842;SDS011;407;48.884;9.126;2022-11-14T16:51:20;7.55;;;2.85;;
842;SDS011;407;48.884;9.126;2022-11-14T16:53:46;7.80;;;2.72;;
842;SDS011;407;48.884;9.126;2022-11-14T16:56:11;8.00;;;2.83;;
842;SDS011;407;48.884;9.126;2022-11-14T16:58:37;8.70;;;2.58;;
842;SDS011;407;48.884;9.126;2022-11-14T17:01:05;7.53;;;2.65;;
842;SDS011;407;48.884;9.126;2022-11-14T17:03:32;7.20;;;2.50;;
842;SDS011;407;48.884;9.126;2022-11-14T17:05:58;7.20;;;2.50;;
842;SDS011;407;48.884;9.126;2022-11-14T17:08:24;8.93;;;2.40;;
842;SDS011;407;48.884;9.126;2022-11-14T17:10:49;8.63;;;2.90;;
842;SDS011;407;48.884;9.126;2022-11-14T17:13:15;8.20;;;2.67;;
842;SDS011;407;48.884;9.126;2022-11-14T17:15:41;8.57;;;2.97;;
842;SDS011;407;48.884;9.126;2022-11-14T17:18:07;8.25;;;2.60;;
842;SDS011;407;48.884;9.126;2022-11-14T17:20:35;7.43;;;2.70;;
842;SDS011;407;48.884;9.126;2022-11-14T17:23:01;7.67;;;2.70;;
842;SDS011;407;48.884;9.126;2022-11-14T17:25:27;7.90;;;3.10;;
842;SDS011;407;48.884;9.126;2022-11-14T17:27:54;7.45;;;2.60;;
842;SDS011;407;48.884;9.126;2022-11-14T17:30:20;7.87;;;2.70;;
842;SDS011;407;48.884;9.126;2022-11-14T17:32:45;6.97;;;2.77;;